PADU

Details ICAO PADU (DUT)
Name UNALASKA
Region USA (Alaska)
Timezone America/Adak (UTC-9.0)
Plans Departing 52
Arriving 58
Stats Elevation 22 ft / 7 m (AMSL)
Location 53.899070° -166.545064°
Runways 1
Magnetic Variation 9.173° E
Sunrise 2017-09-22 16:54:01 UTC / 2017-09-22 07:54:01 Local
Sunset 2017-09-23 05:06:04 UTC / 2017-09-22 20:06:04 Local
Advertisement - Login to hide

Runways

ID Width Length Bearing (true) Bearing (mag) Surface Threshold Offset Overrun Length
12 100 ft / 30 m 3,895 ft / 1,187 m 135.64° 126.47° Asphalt 100 ft / 30 m 0 ft / 0 m
30 100 ft / 30 m 3,895 ft / 1,187 m 315.65° 306.48° Asphalt 101 ft / 31 m 0 ft / 0 m

Map

Weather


0- 5 10 15 20 25 30 35+ Temperature / ° C

Clouds and Precipitation
Forecast for 2017-09-23 12:00 UTC. Updated 2 hours ago

Ground ~20,000 ft ~40,000 ft Winds

METAR

PADU 230856Z AUTO 35011G28KT 10SM FEW020 SCT027 OVC037 07/04 A2982 RMK AO2 PK WND 33031/0837 RAB07E22 SLP098 P0000 60001 T00720039 400940072 51006

TAF

TAF AMD PADU 230814Z 2308/2406 35016G26KT P6SM -SHRA SCT015 BKN035 FM231800 32013KT P6SM SCT015 OVC025

Frequencies

Recorded 125.80 MHz AWOS 3
Unicom 122.60 MHz CTAF
Warning: Do not use this data for real-world aviation or navigation. No guarantee of current accuracy is given.